<?xml version="1.0" encoding="UTF-8" standalone="no" ?>
<gpx xmlns="http://www.topografix.com/GPX/1/1" xmlns:xsi="http://www.w3.org/2001/XMLSchema-instance" xsi:schemaLocation="http://www.topografix.com/GPX/1/1 http://www.topografix.com/GPX/1/1/gpx.xsd" version="1.1" creator="VisuGPX - https://www.visugpx.com">
  <metadata>
    <name>Adret de l\'Escure, Boucle dans les Terres Noires</name>
    <desc><![CDATA[Superbe parcours XC dans les badlands de Digne.]]></desc>
  </metadata>
  <trk>
    <name><![CDATA[ACTIVE LOG 004]]></name>
    <trkseg>
      <trkpt lat="44.08933" lon="6.27613">
        <ele>566.3537598</ele>
        <time>2011-04-18T07:11:36Z</time>
      </trkpt>
      <trkpt lat="44.08913" lon="6.27603">
        <ele>622.5910645</ele>
        <time>2011-04-18T07:14:17Z</time>
      </trkpt>
      <trkpt lat="44.0891" lon="6.27598">
        <ele>623.0717773</ele>
        <time>2011-04-18T07:15:42Z</time>
      </trkpt>
      <trkpt lat="44.08891" lon="6.27671">
        <ele>624.5136719</ele>
        <time>2011-04-18T07:16:12Z</time>
      </trkpt>
      <trkpt lat="44.08962" lon="6.27983">
        <ele>630.762207</ele>
        <time>2011-04-18T07:17:29Z</time>
      </trkpt>
      <trkpt lat="44.08899" lon="6.28098">
        <ele>635.0881348</ele>
        <time>2011-04-18T07:17:55Z</time>
      </trkpt>
      <trkpt lat="44.08905" lon="6.28173">
        <ele>637.0107422</ele>
        <time>2011-04-18T07:18:10Z</time>
      </trkpt>
      <trkpt lat="44.08949" lon="6.28267">
        <ele>640.3754883</ele>
        <time>2011-04-18T07:18:32Z</time>
      </trkpt>
      <trkpt lat="44.08919" lon="6.28329">
        <ele>642.2980957</ele>
        <time>2011-04-18T07:18:47Z</time>
      </trkpt>
      <trkpt lat="44.08873" lon="6.28348">
        <ele>645.6625977</ele>
        <time>2011-04-18T07:19:03Z</time>
      </trkpt>
      <trkpt lat="44.08855" lon="6.28395">
        <ele>649.0270996</ele>
        <time>2011-04-18T07:19:18Z</time>
      </trkpt>
      <trkpt lat="44.08858" lon="6.28601">
        <ele>662.4855957</ele>
        <time>2011-04-18T07:20:30Z</time>
      </trkpt>
      <trkpt lat="44.0888" lon="6.28648">
        <ele>665.3696289</ele>
        <time>2011-04-18T07:20:50Z</time>
      </trkpt>
      <trkpt lat="44.08937" lon="6.28688">
        <ele>667.2922363</ele>
        <time>2011-04-18T07:21:15Z</time>
      </trkpt>
      <trkpt lat="44.08941" lon="6.2872">
        <ele>665.8503418</ele>
        <time>2011-04-18T07:21:21Z</time>
      </trkpt>
      <trkpt lat="44.08871" lon="6.28877">
        <ele>678.3474121</ele>
        <time>2011-04-18T07:22:12Z</time>
      </trkpt>
      <trkpt lat="44.08935" lon="6.29136">
        <ele>692.2866211</ele>
        <time>2011-04-18T07:23:37Z</time>
      </trkpt>
      <trkpt lat="44.08992" lon="6.29186">
        <ele>699.015625</ele>
        <time>2011-04-18T07:24:08Z</time>
      </trkpt>
      <trkpt lat="44.09025" lon="6.29408">
        <ele>710.5515137</ele>
        <time>2011-04-18T07:25:22Z</time>
      </trkpt>
      <trkpt lat="44.09113" lon="6.29535">
        <ele>719.2036133</ele>
        <time>2011-04-18T07:26:15Z</time>
      </trkpt>
      <trkpt lat="44.09138" lon="6.29641">
        <ele>725.4519043</ele>
        <time>2011-04-18T07:27:02Z</time>
      </trkpt>
      <trkpt lat="44.09146" lon="6.296">
        <ele>736.0266113</ele>
        <time>2011-04-18T07:28:34Z</time>
      </trkpt>
      <trkpt lat="44.09156" lon="6.29633">
        <ele>740.8330078</ele>
        <time>2011-04-18T07:29:02Z</time>
      </trkpt>
      <trkpt lat="44.09214" lon="6.29694">
        <ele>749.0043945</ele>
        <time>2011-04-18T07:30:08Z</time>
      </trkpt>
      <trkpt lat="44.09309" lon="6.29807">
        <ele>750.927002</ele>
        <time>2011-04-18T07:31:09Z</time>
      </trkpt>
      <trkpt lat="44.0931" lon="6.29837">
        <ele>750.927002</ele>
        <time>2011-04-18T07:31:21Z</time>
      </trkpt>
      <trkpt lat="44.09372" lon="6.29928">
        <ele>761.9821777</ele>
        <time>2011-04-18T07:33:00Z</time>
      </trkpt>
      <trkpt lat="44.09428" lon="6.29898">
        <ele>784.0925293</ele>
        <time>2011-04-18T07:37:22Z</time>
      </trkpt>
      <trkpt lat="44.09451" lon="6.29862">
        <ele>791.3022461</ele>
        <time>2011-04-18T07:37:56Z</time>
      </trkpt>
      <trkpt lat="44.09474" lon="6.29752">
        <ele>813.4128418</ele>
        <time>2011-04-18T07:40:16Z</time>
      </trkpt>
      <trkpt lat="44.09504" lon="6.2968">
        <ele>826.3903809</ele>
        <time>2011-04-18T07:41:19Z</time>
      </trkpt>
      <trkpt lat="44.0951" lon="6.29602">
        <ele>840.3295898</ele>
        <time>2011-04-18T07:42:35Z</time>
      </trkpt>
      <trkpt lat="44.09574" lon="6.29537">
        <ele>851.8654785</ele>
        <time>2011-04-18T07:44:16Z</time>
      </trkpt>
      <trkpt lat="44.09585" lon="6.29501">
        <ele>858.1140137</ele>
        <time>2011-04-18T07:45:10Z</time>
      </trkpt>
      <trkpt lat="44.09656" lon="6.29471">
        <ele>865.8046875</ele>
        <time>2011-04-18T07:46:14Z</time>
      </trkpt>
      <trkpt lat="44.09685" lon="6.29441">
        <ele>872.5336914</ele>
        <time>2011-04-18T07:46:45Z</time>
      </trkpt>
      <trkpt lat="44.09699" lon="6.29432">
        <ele>873.4951172</ele>
        <time>2011-04-18T07:46:56Z</time>
      </trkpt>
      <trkpt lat="44.09741" lon="6.29473">
        <ele>879.7436523</ele>
        <time>2011-04-18T07:47:31Z</time>
      </trkpt>
      <trkpt lat="44.099" lon="6.29424">
        <ele>878.7824707</ele>
        <time>2011-04-18T07:48:39Z</time>
      </trkpt>
      <trkpt lat="44.09882" lon="6.29589">
        <ele>885.5114746</ele>
        <time>2011-04-18T07:49:35Z</time>
      </trkpt>
      <trkpt lat="44.09884" lon="6.29595">
        <ele>887.434082</ele>
        <time>2011-04-18T07:49:37Z</time>
      </trkpt>
      <trkpt lat="44.09895" lon="6.29621">
        <ele>885.9921875</ele>
        <time>2011-04-18T07:49:45Z</time>
      </trkpt>
      <trkpt lat="44.09936" lon="6.29659">
        <ele>891.7600098</ele>
        <time>2011-04-18T07:50:10Z</time>
      </trkpt>
      <trkpt lat="44.09948" lon="6.29681">
        <ele>891.7600098</ele>
        <time>2011-04-18T07:50:21Z</time>
      </trkpt>
      <trkpt lat="44.10029" lon="6.29688">
        <ele>891.2792969</ele>
        <time>2011-04-18T07:50:51Z</time>
      </trkpt>
      <trkpt lat="44.10085" lon="6.29674">
        <ele>885.5114746</ele>
        <time>2011-04-18T07:51:12Z</time>
      </trkpt>
      <trkpt lat="44.10104" lon="6.2974">
        <ele>892.2409668</ele>
        <time>2011-04-18T07:51:49Z</time>
      </trkpt>
      <trkpt lat="44.10136" lon="6.29783">
        <ele>897.5280762</ele>
        <time>2011-04-18T07:52:20Z</time>
      </trkpt>
      <trkpt lat="44.10152" lon="6.2979">
        <ele>900.8925781</ele>
        <time>2011-04-18T07:52:33Z</time>
      </trkpt>
      <trkpt lat="44.10168" lon="6.29793">
        <ele>902.8151855</ele>
        <time>2011-04-18T07:52:53Z</time>
      </trkpt>
      <trkpt lat="44.10201" lon="6.29811">
        <ele>905.2185059</ele>
        <time>2011-04-18T07:53:38Z</time>
      </trkpt>
      <trkpt lat="44.10241" lon="6.29883">
        <ele>910.5058594</ele>
        <time>2011-04-18T07:54:20Z</time>
      </trkpt>
      <trkpt lat="44.10312" lon="6.29938">
        <ele>911.947998</ele>
        <time>2011-04-18T07:55:07Z</time>
      </trkpt>
      <trkpt lat="44.1033" lon="6.29996">
        <ele>907.6218262</ele>
        <time>2011-04-18T07:55:32Z</time>
      </trkpt>
      <trkpt lat="44.10375" lon="6.3004">
        <ele>917.7155762</ele>
        <time>2011-04-18T07:56:32Z</time>
      </trkpt>
      <trkpt lat="44.10381" lon="6.30056">
        <ele>918.1962891</ele>
        <time>2011-04-18T07:56:44Z</time>
      </trkpt>
      <trkpt lat="44.10402" lon="6.30084">
        <ele>915.7932129</ele>
        <time>2011-04-18T07:56:54Z</time>
      </trkpt>
      <trkpt lat="44.1042" lon="6.30087">
        <ele>919.1577148</ele>
        <time>2011-04-18T07:57:01Z</time>
      </trkpt>
      <trkpt lat="44.10462" lon="6.30106">
        <ele>921.560791</ele>
        <time>2011-04-18T07:57:25Z</time>
      </trkpt>
      <trkpt lat="44.10573" lon="6.3012">
        <ele>929.7321777</ele>
        <time>2011-04-18T07:58:34Z</time>
      </trkpt>
      <trkpt lat="44.10604" lon="6.30179">
        <ele>934.5388184</ele>
        <time>2011-04-18T07:59:05Z</time>
      </trkpt>
      <trkpt lat="44.10647" lon="6.30163">
        <ele>944.1520996</ele>
        <time>2011-04-18T08:00:12Z</time>
      </trkpt>
      <trkpt lat="44.10663" lon="6.30183">
        <ele>944.1520996</ele>
        <time>2011-04-18T08:00:27Z</time>
      </trkpt>
      <trkpt lat="44.10712" lon="6.30266">
        <ele>935.5</ele>
        <time>2011-04-18T08:00:57Z</time>
      </trkpt>
      <trkpt lat="44.10726" lon="6.30307">
        <ele>929.2514648</ele>
        <time>2011-04-18T08:01:17Z</time>
      </trkpt>
      <trkpt lat="44.10752" lon="6.30472">
        <ele>925.8869629</ele>
        <time>2011-04-18T08:06:20Z</time>
      </trkpt>
      <trkpt lat="44.10733" lon="6.30432">
        <ele>926.3676758</ele>
        <time>2011-04-18T08:06:49Z</time>
      </trkpt>
      <trkpt lat="44.10738" lon="6.30381">
        <ele>926.8483887</ele>
        <time>2011-04-18T08:07:31Z</time>
      </trkpt>
      <trkpt lat="44.10663" lon="6.30428">
        <ele>912.9091797</ele>
        <time>2011-04-18T08:08:02Z</time>
      </trkpt>
      <trkpt lat="44.10512" lon="6.30448">
        <ele>888.3955078</ele>
        <time>2011-04-18T08:09:11Z</time>
      </trkpt>
      <trkpt lat="44.10463" lon="6.30555">
        <ele>858.1140137</ele>
        <time>2011-04-18T08:10:07Z</time>
      </trkpt>
      <trkpt lat="44.10435" lon="6.30571">
        <ele>846.5783691</ele>
        <time>2011-04-18T08:11:28Z</time>
      </trkpt>
      <trkpt lat="44.10439" lon="6.30612">
        <ele>843.2133789</ele>
        <time>2011-04-18T08:12:12Z</time>
      </trkpt>
      <trkpt lat="44.10456" lon="6.30631">
        <ele>844.6555176</ele>
        <time>2011-04-18T08:12:28Z</time>
      </trkpt>
      <trkpt lat="44.10446" lon="6.30664">
        <ele>846.5783691</ele>
        <time>2011-04-18T08:13:04Z</time>
      </trkpt>
      <trkpt lat="44.10469" lon="6.30676">
        <ele>848.0202637</ele>
        <time>2011-04-18T08:13:30Z</time>
      </trkpt>
      <trkpt lat="44.10471" lon="6.30677">
        <ele>848.0202637</ele>
        <time>2011-04-18T08:13:49Z</time>
      </trkpt>
      <trkpt lat="44.10451" lon="6.30685">
        <ele>854.2687988</ele>
        <time>2011-04-18T08:14:24Z</time>
      </trkpt>
      <trkpt lat="44.10436" lon="6.30694">
        <ele>855.2299805</ele>
        <time>2011-04-18T08:14:39Z</time>
      </trkpt>
      <trkpt lat="44.10431" lon="6.30708">
        <ele>858.1140137</ele>
        <time>2011-04-18T08:14:54Z</time>
      </trkpt>
      <trkpt lat="44.10406" lon="6.30711">
        <ele>862.4399414</ele>
        <time>2011-04-18T08:15:19Z</time>
      </trkpt>
      <trkpt lat="44.10426" lon="6.30725">
        <ele>865.3239746</ele>
        <time>2011-04-18T08:16:09Z</time>
      </trkpt>
      <trkpt lat="44.10436" lon="6.30736">
        <ele>862.9206543</ele>
        <time>2011-04-18T08:16:27Z</time>
      </trkpt>
      <trkpt lat="44.10466" lon="6.30724">
        <ele>872.0529785</ele>
        <time>2011-04-18T08:24:39Z</time>
      </trkpt>
      <trkpt lat="44.10463" lon="6.30768">
        <ele>879.2629395</ele>
        <time>2011-04-18T08:25:32Z</time>
      </trkpt>
      <trkpt lat="44.10397" lon="6.30747">
        <ele>881.6662598</ele>
        <time>2011-04-18T08:26:28Z</time>
      </trkpt>
      <trkpt lat="44.1036" lon="6.3074">
        <ele>873.9755859</ele>
        <time>2011-04-18T08:27:06Z</time>
      </trkpt>
      <trkpt lat="44.10349" lon="6.30728">
        <ele>880.7050781</ele>
        <time>2011-04-18T08:27:35Z</time>
      </trkpt>
      <trkpt lat="44.1034" lon="6.30697">
        <ele>880.7050781</ele>
        <time>2011-04-18T08:27:56Z</time>
      </trkpt>
      <trkpt lat="44.10316" lon="6.30677">
        <ele>882.6276855</ele>
        <time>2011-04-18T08:28:12Z</time>
      </trkpt>
      <trkpt lat="44.10316" lon="6.30656">
        <ele>882.1469727</ele>
        <time>2011-04-18T08:28:17Z</time>
      </trkpt>
      <trkpt lat="44.10299" lon="6.30639">
        <ele>882.1469727</ele>
        <time>2011-04-18T08:28:30Z</time>
      </trkpt>
      <trkpt lat="44.10282" lon="6.30639">
        <ele>879.2629395</ele>
        <time>2011-04-18T08:28:37Z</time>
      </trkpt>
      <trkpt lat="44.10234" lon="6.30559">
        <ele>891.7600098</ele>
        <time>2011-04-18T08:29:51Z</time>
      </trkpt>
      <trkpt lat="44.10228" lon="6.30574">
        <ele>895.1247559</ele>
        <time>2011-04-18T08:30:55Z</time>
      </trkpt>
      <trkpt lat="44.10175" lon="6.30582">
        <ele>887.434082</ele>
        <time>2011-04-18T08:31:36Z</time>
      </trkpt>
      <trkpt lat="44.10144" lon="6.30553">
        <ele>889.3566895</ele>
        <time>2011-04-18T08:32:08Z</time>
      </trkpt>
      <trkpt lat="44.10095" lon="6.30554">
        <ele>892.7216797</ele>
        <time>2011-04-18T08:33:50Z</time>
      </trkpt>
      <trkpt lat="44.10058" lon="6.30556">
        <ele>891.2792969</ele>
        <time>2011-04-18T08:34:09Z</time>
      </trkpt>
      <trkpt lat="44.10018" lon="6.3054">
        <ele>879.2629395</ele>
        <time>2011-04-18T08:34:29Z</time>
      </trkpt>
      <trkpt lat="44.09991" lon="6.30496">
        <ele>868.6884766</ele>
        <time>2011-04-18T08:34:47Z</time>
      </trkpt>
      <trkpt lat="44.0997" lon="6.30485">
        <ele>866.2851563</ele>
        <time>2011-04-18T08:35:23Z</time>
      </trkpt>
      <trkpt lat="44.09934" lon="6.30388">
        <ele>884.550293</ele>
        <time>2011-04-18T08:36:48Z</time>
      </trkpt>
      <trkpt lat="44.09934" lon="6.3034">
        <ele>889.8374023</ele>
        <time>2011-04-18T08:37:12Z</time>
      </trkpt>
      <trkpt lat="44.10006" lon="6.30255">
        <ele>890.798584</ele>
        <time>2011-04-18T08:38:01Z</time>
      </trkpt>
      <trkpt lat="44.0999" lon="6.30238">
        <ele>886.4729004</ele>
        <time>2011-04-18T08:40:21Z</time>
      </trkpt>
      <trkpt lat="44.09937" lon="6.30243">
        <ele>878.3017578</ele>
        <time>2011-04-18T08:40:44Z</time>
      </trkpt>
      <trkpt lat="44.09916" lon="6.30266">
        <ele>872.0529785</ele>
        <time>2011-04-18T08:40:55Z</time>
      </trkpt>
      <trkpt lat="44.09908" lon="6.30289">
        <ele>864.3625488</ele>
        <time>2011-04-18T08:41:27Z</time>
      </trkpt>
      <trkpt lat="44.0989" lon="6.3029">
        <ele>866.7658691</ele>
        <time>2011-04-18T08:41:48Z</time>
      </trkpt>
      <trkpt lat="44.0988" lon="6.30295">
        <ele>864.8432617</ele>
        <time>2011-04-18T08:41:54Z</time>
      </trkpt>
      <trkpt lat="44.09869" lon="6.30292">
        <ele>865.8046875</ele>
        <time>2011-04-18T08:42:03Z</time>
      </trkpt>
      <trkpt lat="44.09852" lon="6.30301">
        <ele>860.9980469</ele>
        <time>2011-04-18T08:42:13Z</time>
      </trkpt>
      <trkpt lat="44.09766" lon="6.30218">
        <ele>868.6884766</ele>
        <time>2011-04-18T08:43:19Z</time>
      </trkpt>
      <trkpt lat="44.09808" lon="6.30333">
        <ele>882.1469727</ele>
        <time>2011-04-18T08:45:05Z</time>
      </trkpt>
      <trkpt lat="44.09817" lon="6.30337">
        <ele>882.6276855</ele>
        <time>2011-04-18T08:45:14Z</time>
      </trkpt>
      <trkpt lat="44.09799" lon="6.30371">
        <ele>887.9147949</ele>
        <time>2011-04-18T08:46:11Z</time>
      </trkpt>
      <trkpt lat="44.09809" lon="6.30389">
        <ele>896.0861816</ele>
        <time>2011-04-18T08:46:53Z</time>
      </trkpt>
      <trkpt lat="44.09866" lon="6.30412">
        <ele>907.1411133</ele>
        <time>2011-04-18T08:48:12Z</time>
      </trkpt>
      <trkpt lat="44.09868" lon="6.30413">
        <ele>907.1411133</ele>
        <time>2011-04-18T08:48:19Z</time>
      </trkpt>
      <trkpt lat="44.09855" lon="6.30503">
        <ele>888.8762207</ele>
        <time>2011-04-18T08:48:52Z</time>
      </trkpt>
      <trkpt lat="44.09869" lon="6.30551">
        <ele>883.5888672</ele>
        <time>2011-04-18T08:49:01Z</time>
      </trkpt>
      <trkpt lat="44.09911" lon="6.306">
        <ele>876.8598633</ele>
        <time>2011-04-18T08:49:12Z</time>
      </trkpt>
      <trkpt lat="44.09893" lon="6.3067">
        <ele>877.8210449</ele>
        <time>2011-04-18T08:49:35Z</time>
      </trkpt>
      <trkpt lat="44.09901" lon="6.30695">
        <ele>880.2243652</ele>
        <time>2011-04-18T08:49:48Z</time>
      </trkpt>
      <trkpt lat="44.09924" lon="6.3069">
        <ele>883.5888672</ele>
        <time>2011-04-18T08:50:21Z</time>
      </trkpt>
      <trkpt lat="44.09944" lon="6.30695">
        <ele>886.4729004</ele>
        <time>2011-04-18T08:50:36Z</time>
      </trkpt>
      <trkpt lat="44.09948" lon="6.30697">
        <ele>886.4729004</ele>
        <time>2011-04-18T08:50:40Z</time>
      </trkpt>
      <trkpt lat="44.09976" lon="6.30677">
        <ele>890.798584</ele>
        <time>2011-04-18T08:51:00Z</time>
      </trkpt>
      <trkpt lat="44.09996" lon="6.30642">
        <ele>890.798584</ele>
        <time>2011-04-18T08:51:16Z</time>
      </trkpt>
      <trkpt lat="44.10006" lon="6.30622">
        <ele>886.9533691</ele>
        <time>2011-04-18T08:51:34Z</time>
      </trkpt>
      <trkpt lat="44.10044" lon="6.30607">
        <ele>899.4506836</ele>
        <time>2011-04-18T08:52:34Z</time>
      </trkpt>
      <trkpt lat="44.10054" lon="6.30601">
        <ele>899.9313965</ele>
        <time>2011-04-18T08:52:49Z</time>
      </trkpt>
      <trkpt lat="44.10093" lon="6.30597">
        <ele>907.1411133</ele>
        <time>2011-04-18T08:53:16Z</time>
      </trkpt>
      <trkpt lat="44.10139" lon="6.306">
        <ele>913.3898926</ele>
        <time>2011-04-18T08:53:50Z</time>
      </trkpt>
      <trkpt lat="44.10122" lon="6.30626">
        <ele>916.7543945</ele>
        <time>2011-04-18T08:54:33Z</time>
      </trkpt>
      <trkpt lat="44.10168" lon="6.30645">
        <ele>925.8869629</ele>
        <time>2011-04-18T08:55:57Z</time>
      </trkpt>
      <trkpt lat="44.1018" lon="6.30651">
        <ele>926.8483887</ele>
        <time>2011-04-18T08:56:14Z</time>
      </trkpt>
      <trkpt lat="44.10172" lon="6.30735">
        <ele>938.8647461</ele>
        <time>2011-04-18T08:57:30Z</time>
      </trkpt>
      <trkpt lat="44.1017" lon="6.30793">
        <ele>934.5388184</ele>
        <time>2011-04-18T08:57:48Z</time>
      </trkpt>
      <trkpt lat="44.10118" lon="6.3087">
        <ele>926.8483887</ele>
        <time>2011-04-18T08:58:07Z</time>
      </trkpt>
      <trkpt lat="44.10108" lon="6.30896">
        <ele>923.0029297</ele>
        <time>2011-04-18T08:58:14Z</time>
      </trkpt>
      <trkpt lat="44.10135" lon="6.30953">
        <ele>926.3676758</ele>
        <time>2011-04-18T08:58:39Z</time>
      </trkpt>
      <trkpt lat="44.10128" lon="6.30973">
        <ele>930.2128906</ele>
        <time>2011-04-18T08:58:52Z</time>
      </trkpt>
      <trkpt lat="44.10122" lon="6.30988">
        <ele>930.2128906</ele>
        <time>2011-04-18T08:59:08Z</time>
      </trkpt>
      <trkpt lat="44.10049" lon="6.30962">
        <ele>925.40625</ele>
        <time>2011-04-18T09:00:23Z</time>
      </trkpt>
      <trkpt lat="44.10034" lon="6.30972">
        <ele>929.2514648</ele>
        <time>2011-04-18T09:00:43Z</time>
      </trkpt>
      <trkpt lat="44.10102" lon="6.31056">
        <ele>940.7873535</ele>
        <time>2011-04-18T09:02:23Z</time>
      </trkpt>
      <trkpt lat="44.10105" lon="6.31103">
        <ele>949.439209</ele>
        <time>2011-04-18T09:03:32Z</time>
      </trkpt>
      <trkpt lat="44.10086" lon="6.31145">
        <ele>951.3618164</ele>
        <time>2011-04-18T09:04:47Z</time>
      </trkpt>
      <trkpt lat="44.10154" lon="6.31188">
        <ele>966.262207</ele>
        <time>2011-04-18T09:06:56Z</time>
      </trkpt>
      <trkpt lat="44.10158" lon="6.31204">
        <ele>970.1074219</ele>
        <time>2011-04-18T09:07:27Z</time>
      </trkpt>
      <trkpt lat="44.10147" lon="6.31219">
        <ele>972.5109863</ele>
        <time>2011-04-18T09:07:43Z</time>
      </trkpt>
      <trkpt lat="44.10146" lon="6.31224">
        <ele>972.9916992</ele>
        <time>2011-04-18T09:07:47Z</time>
      </trkpt>
      <trkpt lat="44.1019" lon="6.31318">
        <ele>985.0080566</ele>
        <time>2011-04-18T09:09:08Z</time>
      </trkpt>
      <trkpt lat="44.10216" lon="6.31316">
        <ele>987.8918457</ele>
        <time>2011-04-18T09:09:27Z</time>
      </trkpt>
      <trkpt lat="44.10254" lon="6.31411">
        <ele>990.7758789</ele>
        <time>2011-04-18T09:10:17Z</time>
      </trkpt>
      <trkpt lat="44.10247" lon="6.31461">
        <ele>994.6210938</ele>
        <time>2011-04-18T09:10:41Z</time>
      </trkpt>
      <trkpt lat="44.10264" lon="6.31492">
        <ele>996.5439453</ele>
        <time>2011-04-18T09:10:58Z</time>
      </trkpt>
      <trkpt lat="44.10228" lon="6.31513">
        <ele>999.9084473</ele>
        <time>2011-04-18T09:11:27Z</time>
      </trkpt>
      <trkpt lat="44.10242" lon="6.31557">
        <ele>1003.2729492</ele>
        <time>2011-04-18T09:11:53Z</time>
      </trkpt>
      <trkpt lat="44.10313" lon="6.31605">
        <ele>1012.4055176</ele>
        <time>2011-04-18T09:12:49Z</time>
      </trkpt>
      <trkpt lat="44.10242" lon="6.31663">
        <ele>1018.1733398</ele>
        <time>2011-04-18T09:14:15Z</time>
      </trkpt>
      <trkpt lat="44.10236" lon="6.31682">
        <ele>1022.0187988</ele>
        <time>2011-04-18T09:14:37Z</time>
      </trkpt>
      <trkpt lat="44.10214" lon="6.3175">
        <ele>1025.8640137</ele>
        <time>2011-04-18T09:15:25Z</time>
      </trkpt>
      <trkpt lat="44.10272" lon="6.31711">
        <ele>1032.5932617</ele>
        <time>2011-04-18T09:16:11Z</time>
      </trkpt>
      <trkpt lat="44.10299" lon="6.31735">
        <ele>1033.0737305</ele>
        <time>2011-04-18T09:16:28Z</time>
      </trkpt>
      <trkpt lat="44.10346" lon="6.31824">
        <ele>1039.3225098</ele>
        <time>2011-04-18T09:17:05Z</time>
      </trkpt>
      <trkpt lat="44.10434" lon="6.31782">
        <ele>1049.4162598</ele>
        <time>2011-04-18T09:18:09Z</time>
      </trkpt>
      <trkpt lat="44.10502" lon="6.31827">
        <ele>1056.1455078</ele>
        <time>2011-04-18T09:19:01Z</time>
      </trkpt>
      <trkpt lat="44.10526" lon="6.31824">
        <ele>1058.5488281</ele>
        <time>2011-04-18T09:19:20Z</time>
      </trkpt>
      <trkpt lat="44.10593" lon="6.31827">
        <ele>1063.3554688</ele>
        <time>2011-04-18T09:20:17Z</time>
      </trkpt>
      <trkpt lat="44.10526" lon="6.31831">
        <ele>1060.4714355</ele>
        <time>2011-04-18T09:21:29Z</time>
      </trkpt>
      <trkpt lat="44.1057" lon="6.31849">
        <ele>1063.8359375</ele>
        <time>2011-04-18T09:22:00Z</time>
      </trkpt>
      <trkpt lat="44.10697" lon="6.31802">
        <ele>1088.3498535</ele>
        <time>2011-04-18T09:25:09Z</time>
      </trkpt>
      <trkpt lat="44.10744" lon="6.31784">
        <ele>1091.7143555</ele>
        <time>2011-04-18T09:25:59Z</time>
      </trkpt>
      <trkpt lat="44.10775" lon="6.31801">
        <ele>1094.5981445</ele>
        <time>2011-04-18T09:26:23Z</time>
      </trkpt>
      <trkpt lat="44.1081" lon="6.31866">
        <ele>1097.9628906</ele>
        <time>2011-04-18T09:26:57Z</time>
      </trkpt>
      <trkpt lat="44.10841" lon="6.32079">
        <ele>1104.6921387</ele>
        <time>2011-04-18T09:31:41Z</time>
      </trkpt>
      <trkpt lat="44.10878" lon="6.32105">
        <ele>1105.6535645</ele>
        <time>2011-04-18T09:32:10Z</time>
      </trkpt>
      <trkpt lat="44.10915" lon="6.32057">
        <ele>1105.1728516</ele>
        <time>2011-04-18T09:32:25Z</time>
      </trkpt>
      <trkpt lat="44.10956" lon="6.32092">
        <ele>1100.8469238</ele>
        <time>2011-04-18T09:32:36Z</time>
      </trkpt>
      <trkpt lat="44.11039" lon="6.32122">
        <ele>1098.9240723</ele>
        <time>2011-04-18T09:32:54Z</time>
      </trkpt>
      <trkpt lat="44.11064" lon="6.32127">
        <ele>1096.0402832</ele>
        <time>2011-04-18T09:33:03Z</time>
      </trkpt>
      <trkpt lat="44.11052" lon="6.32251">
        <ele>1085.4658203</ele>
        <time>2011-04-18T09:33:21Z</time>
      </trkpt>
      <trkpt lat="44.11081" lon="6.32291">
        <ele>1082.1010742</ele>
        <time>2011-04-18T09:33:32Z</time>
      </trkpt>
      <trkpt lat="44.11127" lon="6.32304">
        <ele>1084.0239258</ele>
        <time>2011-04-18T09:33:49Z</time>
      </trkpt>
      <trkpt lat="44.11136" lon="6.32291">
        <ele>1083.0622559</ele>
        <time>2011-04-18T09:34:15Z</time>
      </trkpt>
      <trkpt lat="44.11128" lon="6.32306">
        <ele>1081.6203613</ele>
        <time>2011-04-18T09:34:18Z</time>
      </trkpt>
      <trkpt lat="44.11142" lon="6.3238">
        <ele>1077.7751465</ele>
        <time>2011-04-18T09:35:42Z</time>
      </trkpt>
      <trkpt lat="44.11143" lon="6.32384">
        <ele>1075.8525391</ele>
        <time>2011-04-18T09:36:07Z</time>
      </trkpt>
      <trkpt lat="44.11246" lon="6.32371">
        <ele>1076.8139648</ele>
        <time>2011-04-18T09:36:34Z</time>
      </trkpt>
      <trkpt lat="44.11334" lon="6.32329">
        <ele>1083.0622559</ele>
        <time>2011-04-18T09:37:14Z</time>
      </trkpt>
      <trkpt lat="44.11343" lon="6.32309">
        <ele>1083.0622559</ele>
        <time>2011-04-18T09:37:22Z</time>
      </trkpt>
      <trkpt lat="44.11382" lon="6.32308">
        <ele>1089.3110352</ele>
        <time>2011-04-18T09:37:48Z</time>
      </trkpt>
      <trkpt lat="44.11387" lon="6.32286">
        <ele>1087.8691406</ele>
        <time>2011-04-18T09:38:18Z</time>
      </trkpt>
      <trkpt lat="44.11402" lon="6.32317">
        <ele>1083.5429688</ele>
        <time>2011-04-18T09:38:43Z</time>
      </trkpt>
      <trkpt lat="44.11392" lon="6.32353">
        <ele>1074.8913574</ele>
        <time>2011-04-18T09:39:02Z</time>
      </trkpt>
      <trkpt lat="44.11403" lon="6.32382">
        <ele>1069.604248</ele>
        <time>2011-04-18T09:39:22Z</time>
      </trkpt>
      <trkpt lat="44.11473" lon="6.32436">
        <ele>1062.8747559</ele>
        <time>2011-04-18T09:40:27Z</time>
      </trkpt>
      <trkpt lat="44.11511" lon="6.32469">
        <ele>1044.1291504</ele>
        <time>2011-04-18T09:41:35Z</time>
      </trkpt>
      <trkpt lat="44.11561" lon="6.32434">
        <ele>1036.9191895</ele>
        <time>2011-04-18T09:42:45Z</time>
      </trkpt>
      <trkpt lat="44.11583" lon="6.32397">
        <ele>1026.8254395</ele>
        <time>2011-04-18T09:43:26Z</time>
      </trkpt>
      <trkpt lat="44.11655" lon="6.32425">
        <ele>1026.8254395</ele>
        <time>2011-04-18T09:43:55Z</time>
      </trkpt>
      <trkpt lat="44.11662" lon="6.32362">
        <ele>1014.328125</ele>
        <time>2011-04-18T09:44:11Z</time>
      </trkpt>
      <trkpt lat="44.11673" lon="6.32361">
        <ele>1017.2121582</ele>
        <time>2011-04-18T09:44:24Z</time>
      </trkpt>
      <trkpt lat="44.11724" lon="6.32332">
        <ele>1011.9250488</ele>
        <time>2011-04-18T09:45:36Z</time>
      </trkpt>
      <trkpt lat="44.11752" lon="6.32324">
        <ele>1013.8474121</ele>
        <time>2011-04-18T09:45:43Z</time>
      </trkpt>
      <trkpt lat="44.11767" lon="6.32325">
        <ele>1010.0021973</ele>
        <time>2011-04-18T09:45:46Z</time>
      </trkpt>
      <trkpt lat="44.11786" lon="6.32313">
        <ele>1011.9250488</ele>
        <time>2011-04-18T09:45:53Z</time>
      </trkpt>
      <trkpt lat="44.11757" lon="6.32297">
        <ele>1008.079834</ele>
        <time>2011-04-18T09:46:25Z</time>
      </trkpt>
      <trkpt lat="44.11766" lon="6.32282">
        <ele>1004.7150879</ele>
        <time>2011-04-18T09:46:30Z</time>
      </trkpt>
      <trkpt lat="44.11821" lon="6.32288">
        <ele>1005.1958008</ele>
        <time>2011-04-18T09:46:49Z</time>
      </trkpt>
      <trkpt lat="44.11844" lon="6.32237">
        <ele>1001.8310547</ele>
        <time>2011-04-18T09:47:02Z</time>
      </trkpt>
      <trkpt lat="44.11882" lon="6.32208">
        <ele>1009.0410156</ele>
        <time>2011-04-18T09:47:24Z</time>
      </trkpt>
      <trkpt lat="44.11894" lon="6.322">
        <ele>1008.5603027</ele>
        <time>2011-04-18T09:47:39Z</time>
      </trkpt>
      <trkpt lat="44.11863" lon="6.32112">
        <ele>1012.4055176</ele>
        <time>2011-04-18T09:48:17Z</time>
      </trkpt>
      <trkpt lat="44.11874" lon="6.32134">
        <ele>1008.5603027</ele>
        <time>2011-04-18T09:48:54Z</time>
      </trkpt>
      <trkpt lat="44.11924" lon="6.3213">
        <ele>994.140625</ele>
        <time>2011-04-18T09:49:53Z</time>
      </trkpt>
      <trkpt lat="44.11968" lon="6.32091">
        <ele>974.9143066</ele>
        <time>2011-04-18T09:50:22Z</time>
      </trkpt>
      <trkpt lat="44.12018" lon="6.3211">
        <ele>977.7980957</ele>
        <time>2011-04-18T09:50:44Z</time>
      </trkpt>
      <trkpt lat="44.12037" lon="6.32143">
        <ele>972.5109863</ele>
        <time>2011-04-18T09:50:56Z</time>
      </trkpt>
      <trkpt lat="44.12072" lon="6.3217">
        <ele>961.4558105</ele>
        <time>2011-04-18T09:51:17Z</time>
      </trkpt>
      <trkpt lat="44.12162" lon="6.32198">
        <ele>961.4558105</ele>
        <time>2011-04-18T09:51:50Z</time>
      </trkpt>
      <trkpt lat="44.1216" lon="6.3216">
        <ele>960.9750977</ele>
        <time>2011-04-18T09:52:01Z</time>
      </trkpt>
      <trkpt lat="44.12102" lon="6.32037">
        <ele>950.8811035</ele>
        <time>2011-04-18T09:52:20Z</time>
      </trkpt>
      <trkpt lat="44.12093" lon="6.31984">
        <ele>951.8425293</ele>
        <time>2011-04-18T09:52:30Z</time>
      </trkpt>
      <trkpt lat="44.12056" lon="6.3193">
        <ele>954.2458496</ele>
        <time>2011-04-18T09:52:46Z</time>
      </trkpt>
      <trkpt lat="44.12027" lon="6.31912">
        <ele>948.9584961</ele>
        <time>2011-04-18T09:52:55Z</time>
      </trkpt>
      <trkpt lat="44.12007" lon="6.31875">
        <ele>950.4006348</ele>
        <time>2011-04-18T09:53:06Z</time>
      </trkpt>
      <trkpt lat="44.11994" lon="6.31863">
        <ele>949.439209</ele>
        <time>2011-04-18T09:53:11Z</time>
      </trkpt>
      <trkpt lat="44.11975" lon="6.31768">
        <ele>958.5717773</ele>
        <time>2011-04-18T09:53:49Z</time>
      </trkpt>
      <trkpt lat="44.11927" lon="6.31749">
        <ele>950.8811035</ele>
        <time>2011-04-18T09:54:08Z</time>
      </trkpt>
      <trkpt lat="44.11896" lon="6.31742">
        <ele>943.1906738</ele>
        <time>2011-04-18T09:54:22Z</time>
      </trkpt>
      <trkpt lat="44.11892" lon="6.3168">
        <ele>949.9199219</ele>
        <time>2011-04-18T09:55:17Z</time>
      </trkpt>
      <trkpt lat="44.11872" lon="6.31661">
        <ele>956.168457</ele>
        <time>2011-04-18T09:55:48Z</time>
      </trkpt>
      <trkpt lat="44.11865" lon="6.31653">
        <ele>957.1298828</ele>
        <time>2011-04-18T09:56:03Z</time>
      </trkpt>
      <trkpt lat="44.11873" lon="6.31592">
        <ele>965.7817383</ele>
        <time>2011-04-18T09:56:57Z</time>
      </trkpt>
      <trkpt lat="44.11814" lon="6.31555">
        <ele>960.9750977</ele>
        <time>2011-04-18T09:57:29Z</time>
      </trkpt>
      <trkpt lat="44.11807" lon="6.31474">
        <ele>961.9365234</ele>
        <time>2011-04-18T09:57:49Z</time>
      </trkpt>
      <trkpt lat="44.11774" lon="6.31451">
        <ele>957.1298828</ele>
        <time>2011-04-18T09:57:57Z</time>
      </trkpt>
      <trkpt lat="44.1177" lon="6.31407">
        <ele>958.5717773</ele>
        <time>2011-04-18T09:58:07Z</time>
      </trkpt>
      <trkpt lat="44.11753" lon="6.31379">
        <ele>956.6491699</ele>
        <time>2011-04-18T09:59:00Z</time>
      </trkpt>
      <trkpt lat="44.11782" lon="6.31256">
        <ele>960.0136719</ele>
        <time>2011-04-18T09:59:35Z</time>
      </trkpt>
      <trkpt lat="44.11826" lon="6.3125">
        <ele>962.8977051</ele>
        <time>2011-04-18T09:59:57Z</time>
      </trkpt>
      <trkpt lat="44.11809" lon="6.31159">
        <ele>970.5881348</ele>
        <time>2011-04-18T10:00:46Z</time>
      </trkpt>
      <trkpt lat="44.11777" lon="6.31133">
        <ele>974.9143066</ele>
        <time>2011-04-18T10:01:17Z</time>
      </trkpt>
      <trkpt lat="44.11762" lon="6.311">
        <ele>978.7595215</ele>
        <time>2011-04-18T10:01:36Z</time>
      </trkpt>
      <trkpt lat="44.11745" lon="6.31014">
        <ele>988.3728027</ele>
        <time>2011-04-18T10:02:31Z</time>
      </trkpt>
      <trkpt lat="44.11753" lon="6.30969">
        <ele>991.7373047</ele>
        <time>2011-04-18T10:02:56Z</time>
      </trkpt>
      <trkpt lat="44.11729" lon="6.30873">
        <ele>1000.3891602</ele>
        <time>2011-04-18T10:03:55Z</time>
      </trkpt>
      <trkpt lat="44.11736" lon="6.3084">
        <ele>1003.2729492</ele>
        <time>2011-04-18T10:04:15Z</time>
      </trkpt>
      <trkpt lat="44.118" lon="6.3079">
        <ele>1012.8862305</ele>
        <time>2011-04-18T10:06:27Z</time>
      </trkpt>
      <trkpt lat="44.11783" lon="6.30727">
        <ele>1018.1733398</ele>
        <time>2011-04-18T10:07:04Z</time>
      </trkpt>
      <trkpt lat="44.11787" lon="6.30676">
        <ele>1022.9802246</ele>
        <time>2011-04-18T10:07:32Z</time>
      </trkpt>
      <trkpt lat="44.11777" lon="6.30655">
        <ele>1024.4221191</ele>
        <time>2011-04-18T10:07:48Z</time>
      </trkpt>
      <trkpt lat="44.11732" lon="6.30648">
        <ele>1031.1513672</ele>
        <time>2011-04-18T10:08:30Z</time>
      </trkpt>
      <trkpt lat="44.11717" lon="6.30603">
        <ele>1034.0351563</ele>
        <time>2011-04-18T10:08:55Z</time>
      </trkpt>
      <trkpt lat="44.11719" lon="6.30512">
        <ele>1041.7258301</ele>
        <time>2011-04-18T10:09:49Z</time>
      </trkpt>
      <trkpt lat="44.11719" lon="6.30498">
        <ele>1042.6872559</ele>
        <time>2011-04-18T10:09:57Z</time>
      </trkpt>
      <trkpt lat="44.11667" lon="6.30484">
        <ele>1045.090332</ele>
        <time>2011-04-18T10:10:41Z</time>
      </trkpt>
      <trkpt lat="44.11677" lon="6.30466">
        <ele>1049.4162598</ele>
        <time>2011-04-18T10:11:01Z</time>
      </trkpt>
      <trkpt lat="44.11736" lon="6.30408">
        <ele>1068.1621094</ele>
        <time>2011-04-18T10:13:17Z</time>
      </trkpt>
      <trkpt lat="44.11766" lon="6.30379">
        <ele>1073.9299316</ele>
        <time>2011-04-18T10:14:12Z</time>
      </trkpt>
      <trkpt lat="44.11927" lon="6.30463">
        <ele>1088.3498535</ele>
        <time>2011-04-18T10:16:05Z</time>
      </trkpt>
      <trkpt lat="44.11974" lon="6.30466">
        <ele>1094.5981445</ele>
        <time>2011-04-18T10:16:39Z</time>
      </trkpt>
      <trkpt lat="44.12002" lon="6.30441">
        <ele>1096.5209961</ele>
        <time>2011-04-18T10:17:01Z</time>
      </trkpt>
      <trkpt lat="44.12005" lon="6.30415">
        <ele>1097.9628906</ele>
        <time>2011-04-18T10:17:14Z</time>
      </trkpt>
      <trkpt lat="44.11996" lon="6.3037">
        <ele>1088.8305664</ele>
        <time>2011-04-18T10:17:52Z</time>
      </trkpt>
      <trkpt lat="44.12011" lon="6.30304">
        <ele>1080.6591797</ele>
        <time>2011-04-18T10:18:11Z</time>
      </trkpt>
      <trkpt lat="44.11981" lon="6.30167">
        <ele>1076.8139648</ele>
        <time>2011-04-18T10:18:41Z</time>
      </trkpt>
      <trkpt lat="44.11981" lon="6.30098">
        <ele>1078.7365723</ele>
        <time>2011-04-18T10:19:02Z</time>
      </trkpt>
      <trkpt lat="44.11933" lon="6.2999">
        <ele>1078.2558594</ele>
        <time>2011-04-18T10:19:31Z</time>
      </trkpt>
      <trkpt lat="44.11993" lon="6.29814">
        <ele>1061.4328613</ele>
        <time>2011-04-18T10:20:08Z</time>
      </trkpt>
      <trkpt lat="44.11959" lon="6.29665">
        <ele>1051.3388672</ele>
        <time>2011-04-18T10:20:30Z</time>
      </trkpt>
      <trkpt lat="44.11965" lon="6.29598">
        <ele>1047.0129395</ele>
        <time>2011-04-18T10:20:45Z</time>
      </trkpt>
      <trkpt lat="44.11929" lon="6.29487">
        <ele>1025.3833008</ele>
        <time>2011-04-18T10:21:16Z</time>
      </trkpt>
      <trkpt lat="44.11921" lon="6.29453">
        <ele>1015.7702637</ele>
        <time>2011-04-18T10:21:55Z</time>
      </trkpt>
      <trkpt lat="44.11926" lon="6.29448">
        <ele>1012.4055176</ele>
        <time>2011-04-18T10:22:17Z</time>
      </trkpt>
      <trkpt lat="44.11904" lon="6.29435">
        <ele>1007.5991211</ele>
        <time>2011-04-18T10:22:33Z</time>
      </trkpt>
      <trkpt lat="44.11928" lon="6.29423">
        <ele>998.4663086</ele>
        <time>2011-04-18T10:22:58Z</time>
      </trkpt>
      <trkpt lat="44.11924" lon="6.2941">
        <ele>992.6987305</ele>
        <time>2011-04-18T10:23:07Z</time>
      </trkpt>
      <trkpt lat="44.11932" lon="6.2941">
        <ele>990.7758789</ele>
        <time>2011-04-18T10:23:13Z</time>
      </trkpt>
      <trkpt lat="44.11933" lon="6.29402">
        <ele>987.8918457</ele>
        <time>2011-04-18T10:23:17Z</time>
      </trkpt>
      <trkpt lat="44.11913" lon="6.29381">
        <ele>979.2399902</ele>
        <time>2011-04-18T10:23:41Z</time>
      </trkpt>
      <trkpt lat="44.11947" lon="6.29369">
        <ele>967.7041016</ele>
        <time>2011-04-18T10:24:23Z</time>
      </trkpt>
      <trkpt lat="44.1194" lon="6.29346">
        <ele>960.0136719</ele>
        <time>2011-04-18T10:24:37Z</time>
      </trkpt>
      <trkpt lat="44.1195" lon="6.29329">
        <ele>953.2844238</ele>
        <time>2011-04-18T10:24:47Z</time>
      </trkpt>
      <trkpt lat="44.11949" lon="6.29315">
        <ele>947.9973145</ele>
        <time>2011-04-18T10:24:54Z</time>
      </trkpt>
      <trkpt lat="44.11951" lon="6.29317">
        <ele>947.5166016</ele>
        <time>2011-04-18T10:25:09Z</time>
      </trkpt>
      <trkpt lat="44.11933" lon="6.29288">
        <ele>936.9418945</ele>
        <time>2011-04-18T10:25:44Z</time>
      </trkpt>
      <trkpt lat="44.11915" lon="6.29292">
        <ele>935.0195313</ele>
        <time>2011-04-18T10:25:51Z</time>
      </trkpt>
      <trkpt lat="44.11898" lon="6.29265">
        <ele>929.2514648</ele>
        <time>2011-04-18T10:26:03Z</time>
      </trkpt>
      <trkpt lat="44.11818" lon="6.2921">
        <ele>906.6604004</ele>
        <time>2011-04-18T10:26:25Z</time>
      </trkpt>
      <trkpt lat="44.11704" lon="6.29065">
        <ele>868.6884766</ele>
        <time>2011-04-18T10:27:15Z</time>
      </trkpt>
      <trkpt lat="44.1168" lon="6.2906">
        <ele>865.3239746</ele>
        <time>2011-04-18T10:27:21Z</time>
      </trkpt>
      <trkpt lat="44.1167" lon="6.29015">
        <ele>863.4013672</ele>
        <time>2011-04-18T10:27:31Z</time>
      </trkpt>
      <trkpt lat="44.1164" lon="6.2898">
        <ele>860.9980469</ele>
        <time>2011-04-18T10:27:41Z</time>
      </trkpt>
      <trkpt lat="44.11605" lon="6.28901">
        <ele>860.9980469</ele>
        <time>2011-04-18T10:27:57Z</time>
      </trkpt>
      <trkpt lat="44.11571" lon="6.28658">
        <ele>869.1691895</ele>
        <time>2011-04-18T10:30:14Z</time>
      </trkpt>
      <trkpt lat="44.11533" lon="6.28621">
        <ele>865.3239746</ele>
        <time>2011-04-18T10:30:29Z</time>
      </trkpt>
      <trkpt lat="44.1152" lon="6.28617">
        <ele>863.4013672</ele>
        <time>2011-04-18T10:30:32Z</time>
      </trkpt>
      <trkpt lat="44.11468" lon="6.28544">
        <ele>853.7880859</ele>
        <time>2011-04-18T10:30:54Z</time>
      </trkpt>
      <trkpt lat="44.11392" lon="6.28493">
        <ele>848.0202637</ele>
        <time>2011-04-18T10:31:15Z</time>
      </trkpt>
      <trkpt lat="44.11346" lon="6.28434">
        <ele>846.5783691</ele>
        <time>2011-04-18T10:31:30Z</time>
      </trkpt>
      <trkpt lat="44.11283" lon="6.28434">
        <ele>838.8876953</ele>
        <time>2011-04-18T10:31:52Z</time>
      </trkpt>
      <trkpt lat="44.11278" lon="6.28434">
        <ele>836.484375</ele>
        <time>2011-04-18T10:31:53Z</time>
      </trkpt>
      <trkpt lat="44.11253" lon="6.28416">
        <ele>835.5229492</ele>
        <time>2011-04-18T10:32:01Z</time>
      </trkpt>
      <trkpt lat="44.11216" lon="6.28371">
        <ele>829.755127</ele>
        <time>2011-04-18T10:32:14Z</time>
      </trkpt>
      <trkpt lat="44.11167" lon="6.28368">
        <ele>828.7939453</ele>
        <time>2011-04-18T10:32:26Z</time>
      </trkpt>
      <trkpt lat="44.11139" lon="6.28344">
        <ele>826.3903809</ele>
        <time>2011-04-18T10:32:33Z</time>
      </trkpt>
      <trkpt lat="44.1108" lon="6.28354">
        <ele>838.4069824</ele>
        <time>2011-04-18T10:33:24Z</time>
      </trkpt>
      <trkpt lat="44.11052" lon="6.28328">
        <ele>844.1750488</ele>
        <time>2011-04-18T10:34:12Z</time>
      </trkpt>
      <trkpt lat="44.11019" lon="6.28257">
        <ele>842.2521973</ele>
        <time>2011-04-18T10:34:49Z</time>
      </trkpt>
      <trkpt lat="44.10975" lon="6.28239">
        <ele>833.6003418</ele>
        <time>2011-04-18T10:35:06Z</time>
      </trkpt>
      <trkpt lat="44.10923" lon="6.2825">
        <ele>818.2192383</ele>
        <time>2011-04-18T10:36:05Z</time>
      </trkpt>
      <trkpt lat="44.10841" lon="6.28207">
        <ele>798.512207</ele>
        <time>2011-04-18T10:36:32Z</time>
      </trkpt>
      <trkpt lat="44.10805" lon="6.28142">
        <ele>784.0925293</ele>
        <time>2011-04-18T10:37:07Z</time>
      </trkpt>
      <trkpt lat="44.10729" lon="6.28092">
        <ele>779.7663574</ele>
        <time>2011-04-18T10:37:24Z</time>
      </trkpt>
      <trkpt lat="44.10702" lon="6.28041">
        <ele>771.5952148</ele>
        <time>2011-04-18T10:37:33Z</time>
      </trkpt>
      <trkpt lat="44.10675" lon="6.28022">
        <ele>770.6340332</ele>
        <time>2011-04-18T10:37:39Z</time>
      </trkpt>
      <trkpt lat="44.10607" lon="6.28018">
        <ele>761.5014648</ele>
        <time>2011-04-18T10:37:56Z</time>
      </trkpt>
      <trkpt lat="44.1052" lon="6.27954">
        <ele>747.5622559</ele>
        <time>2011-04-18T10:38:22Z</time>
      </trkpt>
      <trkpt lat="44.10411" lon="6.27929">
        <ele>739.3911133</ele>
        <time>2011-04-18T10:38:46Z</time>
      </trkpt>
      <trkpt lat="44.10354" lon="6.27955">
        <ele>733.1425781</ele>
        <time>2011-04-18T10:39:00Z</time>
      </trkpt>
      <trkpt lat="44.10326" lon="6.2796">
        <ele>727.8552246</ele>
        <time>2011-04-18T10:39:07Z</time>
      </trkpt>
      <trkpt lat="44.10309" lon="6.27957">
        <ele>721.6066895</ele>
        <time>2011-04-18T10:39:11Z</time>
      </trkpt>
      <trkpt lat="44.1027" lon="6.27929">
        <ele>714.3967285</ele>
        <time>2011-04-18T10:39:23Z</time>
      </trkpt>
      <trkpt lat="44.10235" lon="6.27909">
        <ele>702.3803711</ele>
        <time>2011-04-18T10:39:40Z</time>
      </trkpt>
      <trkpt lat="44.10151" lon="6.27888">
        <ele>686.5187988</ele>
        <time>2011-04-18T10:40:34Z</time>
      </trkpt>
      <trkpt lat="44.10112" lon="6.27857">
        <ele>683.1538086</ele>
        <time>2011-04-18T10:41:17Z</time>
      </trkpt>
      <trkpt lat="44.10113" lon="6.27847">
        <ele>683.1538086</ele>
        <time>2011-04-18T10:41:23Z</time>
      </trkpt>
      <trkpt lat="44.10108" lon="6.27809">
        <ele>681.2314453</ele>
        <time>2011-04-18T10:43:08Z</time>
      </trkpt>
      <trkpt lat="44.1005" lon="6.27781">
        <ele>683.1538086</ele>
        <time>2011-04-18T10:43:32Z</time>
      </trkpt>
      <trkpt lat="44.10008" lon="6.27761">
        <ele>677.3862305</ele>
        <time>2011-04-18T10:43:40Z</time>
      </trkpt>
      <trkpt lat="44.0999" lon="6.2772">
        <ele>678.828125</ele>
        <time>2011-04-18T10:44:01Z</time>
      </trkpt>
      <trkpt lat="44.09979" lon="6.27679">
        <ele>675.4633789</ele>
        <time>2011-04-18T10:44:12Z</time>
      </trkpt>
      <trkpt lat="44.09912" lon="6.27629">
        <ele>677.8666992</ele>
        <time>2011-04-18T10:44:41Z</time>
      </trkpt>
      <trkpt lat="44.09834" lon="6.27616">
        <ele>668.734375</ele>
        <time>2011-04-18T10:45:19Z</time>
      </trkpt>
      <trkpt lat="44.09719" lon="6.27514">
        <ele>666.8115234</ele>
        <time>2011-04-18T10:46:02Z</time>
      </trkpt>
      <trkpt lat="44.09689" lon="6.27476">
        <ele>662.9663086</ele>
        <time>2011-04-18T10:46:11Z</time>
      </trkpt>
      <trkpt lat="44.09653" lon="6.27494">
        <ele>661.5244141</ele>
        <time>2011-04-18T10:46:18Z</time>
      </trkpt>
      <trkpt lat="44.09512" lon="6.27448">
        <ele>661.5244141</ele>
        <time>2011-04-18T10:46:48Z</time>
      </trkpt>
      <trkpt lat="44.09472" lon="6.27454">
        <ele>662.005127</ele>
        <time>2011-04-18T10:46:58Z</time>
      </trkpt>
      <trkpt lat="44.09448" lon="6.27429">
        <ele>658.1599121</ele>
        <time>2011-04-18T10:47:04Z</time>
      </trkpt>
      <trkpt lat="44.09449" lon="6.27363">
        <ele>652.8725586</ele>
        <time>2011-04-18T10:47:11Z</time>
      </trkpt>
      <trkpt lat="44.09403" lon="6.27327">
        <ele>651.4304199</ele>
        <time>2011-04-18T10:47:21Z</time>
      </trkpt>
      <trkpt lat="44.09331" lon="6.27296">
        <ele>649.0270996</ele>
        <time>2011-04-18T10:47:34Z</time>
      </trkpt>
      <trkpt lat="44.09234" lon="6.27294">
        <ele>649.0270996</ele>
        <time>2011-04-18T10:47:56Z</time>
      </trkpt>
      <trkpt lat="44.09161" lon="6.27313">
        <ele>646.6240234</ele>
        <time>2011-04-18T10:48:19Z</time>
      </trkpt>
      <trkpt lat="44.09114" lon="6.27253">
        <ele>643.7399902</ele>
        <time>2011-04-18T10:48:55Z</time>
      </trkpt>
      <trkpt lat="44.09073" lon="6.27241">
        <ele>643.2592773</ele>
        <time>2011-04-18T10:48:59Z</time>
      </trkpt>
      <trkpt lat="44.0903" lon="6.27188">
        <ele>643.7399902</ele>
        <time>2011-04-18T10:49:12Z</time>
      </trkpt>
      <trkpt lat="44.08912" lon="6.27598">
        <ele>650.949707</ele>
        <time>2011-04-18T10:51:34Z</time>
      </trkpt>
    </trkseg>
  </trk>
</gpx>